sensor_id;sensor_type;location;lat;lon;timestamp;P1;durP1;ratioP1;P2;durP2;ratioP2
53674;SDS011;39574;50.534;8.500;2023-06-19T00:00:07;10.9;;;7.5;;
53674;SDS011;39574;50.534;8.500;2023-06-19T00:05:06;11.3;;;7.5;;
53674;SDS011;39574;50.534;8.500;2023-06-19T00:10:05;11.2;;;7.7;;
53674;SDS011;39574;50.534;8.500;2023-06-19T00:15:05;11.1;;;7.5;;
53674;SDS011;39574;50.534;8.500;2023-06-19T00:20:05;11.1;;;7.6;;
53674;SDS011;39574;50.534;8.500;2023-06-19T00:25:04;10.7;;;7.5;;
53674;SDS011;39574;50.534;8.500;2023-06-19T00:30:05;10.7;;;7.6;;
53674;SDS011;39574;50.534;8.500;2023-06-19T00:35:03;11.1;;;7.9;;
53674;SDS011;39574;50.534;8.500;2023-06-19T00:40:02;11.9;;;8.2;;
53674;SDS011;39574;50.534;8.500;2023-06-19T00:45:02;11.7;;;8.3;;
53674;SDS011;39574;50.534;8.500;2023-06-19T00:50:04;11.4;;;8.2;;
53674;SDS011;39574;50.534;8.500;2023-06-19T00:55:01;11.0;;;8.1;;
53674;SDS011;39574;50.534;8.500;2023-06-19T01:00:00;11.0;;;7.9;;
53674;SDS011;39574;50.534;8.500;2023-06-19T01:05:00;11.2;;;8.1;;
53674;SDS011;39574;50.534;8.500;2023-06-19T01:10:00;11.0;;;8.0;;
53674;SDS011;39574;50.534;8.500;2023-06-19T01:14:59;10.9;;;8.0;;
53674;SDS011;39574;50.534;8.500;2023-06-19T01:19:58;11.2;;;8.1;;
53674;SDS011;39574;50.534;8.500;2023-06-19T01:24:58;10.9;;;7.8;;
53674;SDS011;39574;50.534;8.500;2023-06-19T01:29:57;11.1;;;7.8;;
53674;SDS011;39574;50.534;8.500;2023-06-19T01:34:57;11.0;;;8.1;;
53674;SDS011;39574;50.534;8.500;2023-06-19T01:39:56;11.4;;;8.1;;
53674;SDS011;39574;50.534;8.500;2023-06-19T01:44:55;11.6;;;8.3;;
53674;SDS011;39574;50.534;8.500;2023-06-19T01:49:55;11.4;;;8.0;;
53674;SDS011;39574;50.534;8.500;2023-06-19T01:54:54;11.4;;;8.0;;
53674;SDS011;39574;50.534;8.500;2023-06-19T01:59:54;11.7;;;8.2;;
53674;SDS011;39574;50.534;8.500;2023-06-19T02:04:53;11.7;;;8.3;;
53674;SDS011;39574;50.534;8.500;2023-06-19T02:09:52;11.6;;;8.2;;
53674;SDS011;39574;50.534;8.500;2023-06-19T02:14:52;12.1;;;8.4;;
53674;SDS011;39574;50.534;8.500;2023-06-19T02:19:52;11.7;;;8.2;;
53674;SDS011;39574;50.534;8.500;2023-06-19T02:24:51;11.2;;;8.0;;
53674;SDS011;39574;50.534;8.500;2023-06-19T02:29:50;11.1;;;8.1;;
53674;SDS011;39574;50.534;8.500;2023-06-19T02:34:50;10.8;;;8.0;;
53674;SDS011;39574;50.534;8.500;2023-06-19T02:39:49;11.9;;;8.2;;
53674;SDS011;39574;50.534;8.500;2023-06-19T02:44:49;11.4;;;8.0;;
53674;SDS011;39574;50.534;8.500;2023-06-19T02:49:48;11.5;;;8.1;;
53674;SDS011;39574;50.534;8.500;2023-06-19T02:54:48;11.6;;;8.2;;
53674;SDS011;39574;50.534;8.500;2023-06-19T02:59:47;11.1;;;8.0;;
53674;SDS011;39574;50.534;8.500;2023-06-19T03:04:46;11.4;;;8.0;;
53674;SDS011;39574;50.534;8.500;2023-06-19T03:09:46;11.5;;;8.1;;
53674;SDS011;39574;50.534;8.500;2023-06-19T03:14:45;11.4;;;8.1;;
53674;SDS011;39574;50.534;8.500;2023-06-19T03:19:45;11.7;;;8.2;;
53674;SDS011;39574;50.534;8.500;2023-06-19T03:24:44;11.5;;;8.1;;
53674;SDS011;39574;50.534;8.500;2023-06-19T03:29:43;11.6;;;8.0;;
53674;SDS011;39574;50.534;8.500;2023-06-19T03:34:43;11.7;;;8.0;;
53674;SDS011;39574;50.534;8.500;2023-06-19T03:39:42;11.7;;;8.1;;
53674;SDS011;39574;50.534;8.500;2023-06-19T03:44:42;11.5;;;7.9;;
53674;SDS011;39574;50.534;8.500;2023-06-19T03:49:41;12.3;;;8.1;;
53674;SDS011;39574;50.534;8.500;2023-06-19T03:54:41;12.7;;;8.4;;
53674;SDS011;39574;50.534;8.500;2023-06-19T03:59:40;12.6;;;8.6;;
53674;SDS011;39574;50.534;8.500;2023-06-19T04:04:39;12.4;;;8.6;;
53674;SDS011;39574;50.534;8.500;2023-06-19T04:09:39;12.4;;;8.7;;
53674;SDS011;39574;50.534;8.500;2023-06-19T04:14:38;12.3;;;8.6;;
53674;SDS011;39574;50.534;8.500;2023-06-19T04:19:38;12.3;;;8.5;;
53674;SDS011;39574;50.534;8.500;2023-06-19T04:24:37;12.2;;;8.4;;
53674;SDS011;39574;50.534;8.500;2023-06-19T04:29:36;12.5;;;8.4;;
53674;SDS011;39574;50.534;8.500;2023-06-19T04:34:36;12.0;;;8.2;;
53674;SDS011;39574;50.534;8.500;2023-06-19T04:39:35;11.9;;;8.3;;
53674;SDS011;39574;50.534;8.500;2023-06-19T04:44:35;11.9;;;8.4;;
53674;SDS011;39574;50.534;8.500;2023-06-19T04:49:34;12.2;;;8.6;;
53674;SDS011;39574;50.534;8.500;2023-06-19T04:54:34;11.8;;;8.4;;
53674;SDS011;39574;50.534;8.500;2023-06-19T04:59:33;11.9;;;8.2;;
53674;SDS011;39574;50.534;8.500;2023-06-19T05:04:32;12.0;;;7.9;;
53674;SDS011;39574;50.534;8.500;2023-06-19T05:09:32;11.3;;;7.4;;
53674;SDS011;39574;50.534;8.500;2023-06-19T05:14:31;11.7;;;7.5;;
53674;SDS011;39574;50.534;8.500;2023-06-19T05:19:31;11.8;;;7.2;;
53674;SDS011;39574;50.534;8.500;2023-06-19T05:24:30;12.1;;;6.7;;
53674;SDS011;39574;50.534;8.500;2023-06-19T05:29:29;11.1;;;6.4;;
53674;SDS011;39574;50.534;8.500;2023-06-19T05:34:29;10.4;;;6.1;;
53674;SDS011;39574;50.534;8.500;2023-06-19T05:39:29;9.5;;;5.8;;
53674;SDS011;39574;50.534;8.500;2023-06-19T05:44:29;9.4;;;5.8;;
53674;SDS011;39574;50.534;8.500;2023-06-19T05:49:28;9.4;;;5.7;;
53674;SDS011;39574;50.534;8.500;2023-06-19T05:59:30;9.5;;;5.7;;
53674;SDS011;39574;50.534;8.500;2023-06-19T06:04:26;9.5;;;5.7;;
53674;SDS011;39574;50.534;8.500;2023-06-19T06:09:26;9.4;;;5.7;;
53674;SDS011;39574;50.534;8.500;2023-06-19T06:14:26;9.1;;;5.7;;
53674;SDS011;39574;50.534;8.500;2023-06-19T06:19:25;8.8;;;5.7;;
53674;SDS011;39574;50.534;8.500;2023-06-19T06:24:24;8.8;;;5.5;;
53674;SDS011;39574;50.534;8.500;2023-06-19T06:29:25;8.5;;;5.4;;
53674;SDS011;39574;50.534;8.500;2023-06-19T06:34:24;8.8;;;5.3;;
53674;SDS011;39574;50.534;8.500;2023-06-19T06:39:23;8.6;;;5.2;;
53674;SDS011;39574;50.534;8.500;2023-06-19T06:44:22;8.2;;;5.1;;
53674;SDS011;39574;50.534;8.500;2023-06-19T06:49:22;8.3;;;5.1;;
53674;SDS011;39574;50.534;8.500;2023-06-19T06:54:22;7.9;;;5.0;;
53674;SDS011;39574;50.534;8.500;2023-06-19T06:59:21;8.1;;;5.0;;
53674;SDS011;39574;50.534;8.500;2023-06-19T07:04:21;8.3;;;4.9;;
53674;SDS011;39574;50.534;8.500;2023-06-19T07:09:21;8.3;;;4.9;;
53674;SDS011;39574;50.534;8.500;2023-06-19T07:14:20;8.7;;;4.9;;
53674;SDS011;39574;50.534;8.500;2023-06-19T07:19:20;50.2;;;7.1;;
53674;SDS011;39574;50.534;8.500;2023-06-19T07:24:19;39.5;;;6.5;;
53674;SDS011;39574;50.534;8.500;2023-06-19T07:29:19;28.9;;;6.0;;
53674;SDS011;39574;50.534;8.500;2023-06-19T07:34:18;19.8;;;5.6;;
53674;SDS011;39574;50.534;8.500;2023-06-19T07:39:18;17.2;;;5.3;;
53674;SDS011;39574;50.534;8.500;2023-06-19T07:44:17;15.7;;;5.3;;
53674;SDS011;39574;50.534;8.500;2023-06-19T07:49:17;12.8;;;5.2;;
53674;SDS011;39574;50.534;8.500;2023-06-19T07:54:16;10.8;;;5.3;;
53674;SDS011;39574;50.534;8.500;2023-06-19T07:59:16;9.0;;;5.3;;
53674;SDS011;39574;50.534;8.500;2023-06-19T08:04:16;9.1;;;5.3;;
53674;SDS011;39574;50.534;8.500;2023-06-19T08:09:15;9.7;;;5.2;;
53674;SDS011;39574;50.534;8.500;2023-06-19T08:14:15;13.8;;;5.4;;
53674;SDS011;39574;50.534;8.500;2023-06-19T08:19:14;13.4;;;5.5;;
53674;SDS011;39574;50.534;8.500;2023-06-19T08:24:14;11.6;;;5.3;;
53674;SDS011;39574;50.534;8.500;2023-06-19T08:29:13;10.3;;;5.2;;
53674;SDS011;39574;50.534;8.500;2023-06-19T08:34:13;9.6;;;5.2;;
53674;SDS011;39574;50.534;8.500;2023-06-19T08:39:12;8.8;;;5.0;;
53674;SDS011;39574;50.534;8.500;2023-06-19T08:44:12;8.8;;;5.1;;
53674;SDS011;39574;50.534;8.500;2023-06-19T08:49:12;8.5;;;5.2;;
53674;SDS011;39574;50.534;8.500;2023-06-19T08:54:11;8.4;;;5.3;;
53674;SDS011;39574;50.534;8.500;2023-06-19T08:59:11;8.7;;;5.2;;
53674;SDS011;39574;50.534;8.500;2023-06-19T09:04:11;8.5;;;5.0;;
53674;SDS011;39574;50.534;8.500;2023-06-19T09:09:10;14.0;;;5.0;;
53674;SDS011;39574;50.534;8.500;2023-06-19T09:14:10;13.4;;;4.9;;
53674;SDS011;39574;50.534;8.500;2023-06-19T09:19:09;11.7;;;4.8;;
53674;SDS011;39574;50.534;8.500;2023-06-19T09:24:09;9.7;;;4.6;;
53674;SDS011;39574;50.534;8.500;2023-06-19T09:29:09;7.7;;;4.5;;
53674;SDS011;39574;50.534;8.500;2023-06-19T09:34:08;7.8;;;4.6;;
53674;SDS011;39574;50.534;8.500;2023-06-19T09:39:08;7.2;;;4.4;;
53674;SDS011;39574;50.534;8.500;2023-06-19T09:44:08;7.7;;;4.5;;
53674;SDS011;39574;50.534;8.500;2023-06-19T09:49:07;7.9;;;4.5;;
53674;SDS011;39574;50.534;8.500;2023-06-19T09:54:07;7.5;;;4.4;;
53674;SDS011;39574;50.534;8.500;2023-06-19T09:59:07;7.6;;;4.5;;
53674;SDS011;39574;50.534;8.500;2023-06-19T10:04:07;8.5;;;4.5;;
53674;SDS011;39574;50.534;8.500;2023-06-19T10:09:06;7.7;;;4.3;;
53674;SDS011;39574;50.534;8.500;2023-06-19T10:14:06;8.0;;;4.4;;
53674;SDS011;39574;50.534;8.500;2023-06-19T10:19:11;7.7;;;4.3;;
53674;SDS011;39574;50.534;8.500;2023-06-19T10:24:05;7.7;;;4.3;;
53674;SDS011;39574;50.534;8.500;2023-06-19T10:29:13;7.7;;;4.2;;
53674;SDS011;39574;50.534;8.500;2023-06-19T10:49:05;7.7;;;4.2;;
53674;SDS011;39574;50.534;8.500;2023-06-19T10:54:04;7.3;;;4.3;;
53674;SDS011;39574;50.534;8.500;2023-06-19T10:59:04;8.5;;;4.4;;
53674;SDS011;39574;50.534;8.500;2023-06-19T11:04:04;7.7;;;4.2;;
53674;SDS011;39574;50.534;8.500;2023-06-19T11:09:04;8.1;;;4.3;;
53674;SDS011;39574;50.534;8.500;2023-06-19T11:14:03;8.3;;;4.2;;
53674;SDS011;39574;50.534;8.500;2023-06-19T11:19:03;7.9;;;4.3;;
53674;SDS011;39574;50.534;8.500;2023-06-19T11:24:03;7.5;;;4.3;;
53674;SDS011;39574;50.534;8.500;2023-06-19T11:29:12;7.3;;;4.1;;
53674;SDS011;39574;50.534;8.500;2023-06-19T11:34:02;7.3;;;4.1;;
53674;SDS011;39574;50.534;8.500;2023-06-19T11:39:02;7.1;;;4.2;;
53674;SDS011;39574;50.534;8.500;2023-06-19T11:44:03;7.0;;;4.1;;
53674;SDS011;39574;50.534;8.500;2023-06-19T11:49:10;6.6;;;3.9;;
53674;SDS011;39574;50.534;8.500;2023-06-19T11:54:02;6.9;;;3.9;;
53674;SDS011;39574;50.534;8.500;2023-06-19T11:59:02;7.1;;;4.0;;
53674;SDS011;39574;50.534;8.500;2023-06-19T12:04:02;7.0;;;4.1;;
53674;SDS011;39574;50.534;8.500;2023-06-19T12:09:01;7.0;;;4.2;;
53674;SDS011;39574;50.534;8.500;2023-06-19T12:14:01;6.9;;;4.2;;
53674;SDS011;39574;50.534;8.500;2023-06-19T12:19:01;7.0;;;4.2;;
53674;SDS011;39574;50.534;8.500;2023-06-19T12:24:01;7.0;;;4.1;;
53674;SDS011;39574;50.534;8.500;2023-06-19T12:29:00;6.9;;;4.1;;
53674;SDS011;39574;50.534;8.500;2023-06-19T12:34:00;7.5;;;4.0;;
53674;SDS011;39574;50.534;8.500;2023-06-19T12:39:00;7.8;;;4.1;;
53674;SDS011;39574;50.534;8.500;2023-06-19T12:44:00;8.2;;;4.2;;
53674;SDS011;39574;50.534;8.500;2023-06-19T12:49:00;7.6;;;4.1;;
53674;SDS011;39574;50.534;8.500;2023-06-19T12:54:01;7.0;;;4.1;;
53674;SDS011;39574;50.534;8.500;2023-06-19T12:58:59;7.0;;;4.1;;
53674;SDS011;39574;50.534;8.500;2023-06-19T13:03:59;6.9;;;3.9;;
53674;SDS011;39574;50.534;8.500;2023-06-19T13:08:59;7.2;;;3.9;;
53674;SDS011;39574;50.534;8.500;2023-06-19T13:13:59;7.7;;;4.0;;
53674;SDS011;39574;50.534;8.500;2023-06-19T13:18:59;7.8;;;4.0;;
53674;SDS011;39574;50.534;8.500;2023-06-19T13:23:58;7.7;;;4.0;;
53674;SDS011;39574;50.534;8.500;2023-06-19T13:28:58;8.0;;;4.0;;
53674;SDS011;39574;50.534;8.500;2023-06-19T13:33:58;7.5;;;4.0;;
53674;SDS011;39574;50.534;8.500;2023-06-19T13:38:58;7.2;;;3.9;;
53674;SDS011;39574;50.534;8.500;2023-06-19T13:43:58;7.3;;;3.9;;
53674;SDS011;39574;50.534;8.500;2023-06-19T13:48:58;7.2;;;3.8;;
53674;SDS011;39574;50.534;8.500;2023-06-19T13:53:57;8.0;;;3.9;;
53674;SDS011;39574;50.534;8.500;2023-06-19T13:58:57;8.4;;;4.0;;
53674;SDS011;39574;50.534;8.500;2023-06-19T14:03:57;7.8;;;3.8;;
53674;SDS011;39574;50.534;8.500;2023-06-19T14:08:57;7.4;;;3.7;;
53674;SDS011;39574;50.534;8.500;2023-06-19T14:13:57;6.7;;;3.6;;
53674;SDS011;39574;50.534;8.500;2023-06-19T14:18:56;6.4;;;3.4;;
53674;SDS011;39574;50.534;8.500;2023-06-19T14:23:56;6.1;;;3.4;;
53674;SDS011;39574;50.534;8.500;2023-06-19T14:28:56;6.3;;;3.5;;
53674;SDS011;39574;50.534;8.500;2023-06-19T14:33:56;5.9;;;3.3;;
53674;SDS011;39574;50.534;8.500;2023-06-19T14:38:56;6.8;;;3.3;;
53674;SDS011;39574;50.534;8.500;2023-06-19T14:43:56;6.8;;;3.4;;
53674;SDS011;39574;50.534;8.500;2023-06-19T14:48:56;6.8;;;3.3;;
53674;SDS011;39574;50.534;8.500;2023-06-19T14:53:55;6.7;;;3.4;;
53674;SDS011;39574;50.534;8.500;2023-06-19T14:58:55;6.5;;;3.4;;
53674;SDS011;39574;50.534;8.500;2023-06-19T15:03:55;6.1;;;3.4;;
53674;SDS011;39574;50.534;8.500;2023-06-19T15:08:55;6.1;;;3.3;;
53674;SDS011;39574;50.534;8.500;2023-06-19T15:13:55;6.5;;;3.3;;
53674;SDS011;39574;50.534;8.500;2023-06-19T15:18:55;6.6;;;3.4;;
53674;SDS011;39574;50.534;8.500;2023-06-19T15:23:55;6.5;;;3.4;;
53674;SDS011;39574;50.534;8.500;2023-06-19T15:28:55;6.2;;;3.3;;
53674;SDS011;39574;50.534;8.500;2023-06-19T15:33:55;6.1;;;3.1;;
53674;SDS011;39574;50.534;8.500;2023-06-19T15:38:55;6.0;;;3.1;;
53674;SDS011;39574;50.534;8.500;2023-06-19T15:43:55;6.1;;;3.3;;
53674;SDS011;39574;50.534;8.500;2023-06-19T15:48:55;6.1;;;3.2;;
53674;SDS011;39574;50.534;8.500;2023-06-19T15:53:54;6.1;;;3.2;;
53674;SDS011;39574;50.534;8.500;2023-06-19T15:58:54;6.1;;;3.2;;
53674;SDS011;39574;50.534;8.500;2023-06-19T16:03:54;5.8;;;3.1;;
53674;SDS011;39574;50.534;8.500;2023-06-19T16:08:54;5.9;;;3.3;;
53674;SDS011;39574;50.534;8.500;2023-06-19T16:13:54;5.9;;;3.2;;
53674;SDS011;39574;50.534;8.500;2023-06-19T16:18:54;6.7;;;3.2;;
53674;SDS011;39574;50.534;8.500;2023-06-19T16:23:54;6.5;;;3.3;;
53674;SDS011;39574;50.534;8.500;2023-06-19T16:28:54;7.3;;;3.7;;
53674;SDS011;39574;50.534;8.500;2023-06-19T16:33:54;7.6;;;3.8;;
53674;SDS011;39574;50.534;8.500;2023-06-19T16:38:54;7.1;;;3.6;;
53674;SDS011;39574;50.534;8.500;2023-06-19T16:43:54;6.7;;;3.6;;
53674;SDS011;39574;50.534;8.500;2023-06-19T16:48:54;6.5;;;3.6;;
53674;SDS011;39574;50.534;8.500;2023-06-19T16:53:53;8.1;;;3.6;;
53674;SDS011;39574;50.534;8.500;2023-06-19T16:58:53;7.5;;;3.7;;
53674;SDS011;39574;50.534;8.500;2023-06-19T17:03:53;7.6;;;3.8;;
53674;SDS011;39574;50.534;8.500;2023-06-19T17:08:53;7.0;;;3.9;;
53674;SDS011;39574;50.534;8.500;2023-06-19T17:13:53;6.4;;;3.9;;
53674;SDS011;39574;50.534;8.500;2023-06-19T17:18:53;6.4;;;3.8;;
53674;SDS011;39574;50.534;8.500;2023-06-19T17:23:53;6.5;;;3.8;;
53674;SDS011;39574;50.534;8.500;2023-06-19T17:28:53;6.5;;;3.9;;
53674;SDS011;39574;50.534;8.500;2023-06-19T17:33:53;6.5;;;3.9;;
53674;SDS011;39574;50.534;8.500;2023-06-19T17:38:53;6.7;;;4.0;;
53674;SDS011;39574;50.534;8.500;2023-06-19T17:43:52;6.8;;;3.9;;
53674;SDS011;39574;50.534;8.500;2023-06-19T17:48:52;6.6;;;3.7;;
53674;SDS011;39574;50.534;8.500;2023-06-19T17:53:52;6.4;;;3.5;;
53674;SDS011;39574;50.534;8.500;2023-06-19T17:58:52;6.3;;;3.5;;
53674;SDS011;39574;50.534;8.500;2023-06-19T18:03:52;6.5;;;3.5;;
53674;SDS011;39574;50.534;8.500;2023-06-19T18:08:52;7.0;;;3.6;;
53674;SDS011;39574;50.534;8.500;2023-06-19T18:13:52;6.8;;;3.6;;
53674;SDS011;39574;50.534;8.500;2023-06-19T18:18:52;6.7;;;3.6;;
53674;SDS011;39574;50.534;8.500;2023-06-19T18:23:51;6.1;;;3.5;;
53674;SDS011;39574;50.534;8.500;2023-06-19T18:28:51;5.9;;;3.4;;
53674;SDS011;39574;50.534;8.500;2023-06-19T18:33:51;6.2;;;3.4;;
53674;SDS011;39574;50.534;8.500;2023-06-19T18:38:51;6.5;;;3.5;;
53674;SDS011;39574;50.534;8.500;2023-06-19T18:43:51;6.7;;;3.5;;
53674;SDS011;39574;50.534;8.500;2023-06-19T18:48:51;6.5;;;3.4;;
53674;SDS011;39574;50.534;8.500;2023-06-19T18:53:50;6.5;;;3.4;;
53674;SDS011;39574;50.534;8.500;2023-06-19T18:58:51;6.2;;;3.5;;
53674;SDS011;39574;50.534;8.500;2023-06-19T19:03:50;6.2;;;3.5;;
53674;SDS011;39574;50.534;8.500;2023-06-19T19:08:50;6.7;;;3.6;;
53674;SDS011;39574;50.534;8.500;2023-06-19T19:13:50;6.7;;;3.4;;
53674;SDS011;39574;50.534;8.500;2023-06-19T19:18:49;7.3;;;3.5;;
53674;SDS011;39574;50.534;8.500;2023-06-19T19:23:49;7.3;;;3.5;;
53674;SDS011;39574;50.534;8.500;2023-06-19T19:28:49;7.1;;;3.5;;
53674;SDS011;39574;50.534;8.500;2023-06-19T19:33:49;6.8;;;3.4;;
53674;SDS011;39574;50.534;8.500;2023-06-19T19:38:49;6.4;;;3.5;;
53674;SDS011;39574;50.534;8.500;2023-06-19T19:43:48;6.5;;;3.4;;
53674;SDS011;39574;50.534;8.500;2023-06-19T19:48:49;6.5;;;3.4;;
53674;SDS011;39574;50.534;8.500;2023-06-19T19:53:48;6.7;;;3.5;;
53674;SDS011;39574;50.534;8.500;2023-06-19T19:58:48;6.6;;;3.5;;
53674;SDS011;39574;50.534;8.500;2023-06-19T20:03:47;6.5;;;3.5;;
53674;SDS011;39574;50.534;8.500;2023-06-19T20:08:47;6.9;;;3.5;;
53674;SDS011;39574;50.534;8.500;2023-06-19T20:13:47;7.0;;;3.5;;
53674;SDS011;39574;50.534;8.500;2023-06-19T20:18:47;6.9;;;3.6;;
53674;SDS011;39574;50.534;8.500;2023-06-19T20:23:46;7.4;;;3.7;;
53674;SDS011;39574;50.534;8.500;2023-06-19T20:28:46;7.5;;;3.6;;
53674;SDS011;39574;50.534;8.500;2023-06-19T20:33:46;7.0;;;3.7;;
53674;SDS011;39574;50.534;8.500;2023-06-19T20:38:46;7.6;;;3.7;;
53674;SDS011;39574;50.534;8.500;2023-06-19T20:43:45;7.3;;;3.6;;
53674;SDS011;39574;50.534;8.500;2023-06-19T20:48:45;7.8;;;3.8;;
53674;SDS011;39574;50.534;8.500;2023-06-19T20:53:45;7.5;;;3.8;;
53674;SDS011;39574;50.534;8.500;2023-06-19T20:58:44;7.5;;;4.0;;
53674;SDS011;39574;50.534;8.500;2023-06-19T21:03:44;7.5;;;4.1;;
53674;SDS011;39574;50.534;8.500;2023-06-19T21:08:44;7.4;;;4.0;;
53674;SDS011;39574;50.534;8.500;2023-06-19T21:13:43;7.1;;;4.0;;
53674;SDS011;39574;50.534;8.500;2023-06-19T21:18:43;7.0;;;3.9;;
53674;SDS011;39574;50.534;8.500;2023-06-19T21:23:42;7.0;;;3.8;;
53674;SDS011;39574;50.534;8.500;2023-06-19T21:28:42;7.3;;;3.9;;
53674;SDS011;39574;50.534;8.500;2023-06-19T21:33:42;7.5;;;3.8;;
53674;SDS011;39574;50.534;8.500;2023-06-19T21:38:41;7.1;;;3.8;;
53674;SDS011;39574;50.534;8.500;2023-06-19T21:43:41;6.9;;;3.8;;
53674;SDS011;39574;50.534;8.500;2023-06-19T21:48:41;6.8;;;3.8;;
53674;SDS011;39574;50.534;8.500;2023-06-19T21:53:40;7.1;;;3.8;;
53674;SDS011;39574;50.534;8.500;2023-06-19T21:58:40;7.0;;;3.7;;
53674;SDS011;39574;50.534;8.500;2023-06-19T22:03:39;7.2;;;3.9;;
53674;SDS011;39574;50.534;8.500;2023-06-19T22:08:39;7.3;;;4.0;;
53674;SDS011;39574;50.534;8.500;2023-06-19T22:13:38;6.9;;;3.9;;
53674;SDS011;39574;50.534;8.500;2023-06-19T22:18:38;6.9;;;3.8;;
53674;SDS011;39574;50.534;8.500;2023-06-19T22:23:37;7.0;;;3.7;;
53674;SDS011;39574;50.534;8.500;2023-06-19T22:28:37;7.2;;;3.9;;
53674;SDS011;39574;50.534;8.500;2023-06-19T22:33:37;7.5;;;3.9;;
53674;SDS011;39574;50.534;8.500;2023-06-19T22:38:36;7.4;;;4.1;;
53674;SDS011;39574;50.534;8.500;2023-06-19T22:43:36;7.0;;;4.1;;
53674;SDS011;39574;50.534;8.500;2023-06-19T22:48:35;7.2;;;4.1;;
53674;SDS011;39574;50.534;8.500;2023-06-19T22:53:36;7.2;;;4.2;;
53674;SDS011;39574;50.534;8.500;2023-06-19T22:58:34;7.2;;;4.3;;
53674;SDS011;39574;50.534;8.500;2023-06-19T23:03:34;7.7;;;4.4;;
53674;SDS011;39574;50.534;8.500;2023-06-19T23:08:34;7.2;;;4.3;;
53674;SDS011;39574;50.534;8.500;2023-06-19T23:13:33;7.2;;;4.1;;
53674;SDS011;39574;50.534;8.500;2023-06-19T23:18:33;7.5;;;4.1;;
53674;SDS011;39574;50.534;8.500;2023-06-19T23:23:32;8.4;;;4.2;;
53674;SDS011;39574;50.534;8.500;2023-06-19T23:28:32;8.4;;;4.0;;
53674;SDS011;39574;50.534;8.500;2023-06-19T23:33:31;7.9;;;3.9;;
53674;SDS011;39574;50.534;8.500;2023-06-19T23:38:31;7.5;;;3.9;;
53674;SDS011;39574;50.534;8.500;2023-06-19T23:43:30;7.6;;;4.0;;
53674;SDS011;39574;50.534;8.500;2023-06-19T23:48:30;7.5;;;4.1;;
53674;SDS011;39574;50.534;8.500;2023-06-19T23:53:29;7.3;;;4.1;;
53674;SDS011;39574;50.534;8.500;2023-06-19T23:58:29;7.7;;;4.1;;
